sensor_id;sensor_type;location;lat;lon;timestamp;temperature;humidity
32296;DHT22;18781;51.550;5.418;2023-07-22T00:01:36;19.50;56.20
32296;DHT22;18781;51.550;5.418;2023-07-22T00:04:02;19.50;56.30
32296;DHT22;18781;51.550;5.418;2023-07-22T00:06:29;19.50;56.40
32296;DHT22;18781;51.550;5.418;2023-07-22T00:08:55;19.50;56.50
32296;DHT22;18781;51.550;5.418;2023-07-22T00:11:21;19.50;56.40
32296;DHT22;18781;51.550;5.418;2023-07-22T00:13:46;19.50;56.50
32296;DHT22;18781;51.550;5.418;2023-07-22T00:16:12;19.50;56.50
32296;DHT22;18781;51.550;5.418;2023-07-22T00:18:38;19.50;56.50
32296;DHT22;18781;51.550;5.418;2023-07-22T00:21:03;19.50;56.60
32296;DHT22;18781;51.550;5.418;2023-07-22T00:23:29;19.50;56.70
32296;DHT22;18781;51.550;5.418;2023-07-22T00:25:55;19.50;56.70
32296;DHT22;18781;51.550;5.418;2023-07-22T00:28:21;19.50;56.80
32296;DHT22;18781;51.550;5.418;2023-07-22T00:30:46;19.50;56.80
32296;DHT22;18781;51.550;5.418;2023-07-22T00:33:14;19.40;56.70
32296;DHT22;18781;51.550;5.418;2023-07-22T00:35:40;19.50;56.90
32296;DHT22;18781;51.550;5.418;2023-07-22T00:38:05;19.40;56.90
32296;DHT22;18781;51.550;5.418;2023-07-22T00:40:31;19.40;56.90
32296;DHT22;18781;51.550;5.418;2023-07-22T00:42:59;19.40;57.10
32296;DHT22;18781;51.550;5.418;2023-07-22T00:45:25;19.40;57.00
32296;DHT22;18781;51.550;5.418;2023-07-22T00:47:50;19.40;57.10
32296;DHT22;18781;51.550;5.418;2023-07-22T00:50:16;19.40;57.10
32296;DHT22;18781;51.550;5.418;2023-07-22T00:52:42;19.40;57.10
32296;DHT22;18781;51.550;5.418;2023-07-22T00:55:08;19.40;57.10
32296;DHT22;18781;51.550;5.418;2023-07-22T00:57:33;19.40;57.10
32296;DHT22;18781;51.550;5.418;2023-07-22T00:59:59;19.40;57.20
32296;DHT22;18781;51.550;5.418;2023-07-22T01:02:25;19.40;57.20
32296;DHT22;18781;51.550;5.418;2023-07-22T01:04:50;19.40;57.30
32296;DHT22;18781;51.550;5.418;2023-07-22T01:07:18;19.40;57.40
32296;DHT22;18781;51.550;5.418;2023-07-22T01:09:44;19.40;57.50
32296;DHT22;18781;51.550;5.418;2023-07-22T01:12:10;19.40;57.40
32296;DHT22;18781;51.550;5.418;2023-07-22T01:14:37;19.40;57.50
32296;DHT22;18781;51.550;5.418;2023-07-22T01:17:05;19.30;57.60
32296;DHT22;18781;51.550;5.418;2023-07-22T01:19:31;19.30;57.60
32296;DHT22;18781;51.550;5.418;2023-07-22T01:22:07;19.30;57.60
32296;DHT22;18781;51.550;5.418;2023-07-22T01:24:33;19.30;57.70
32296;DHT22;18781;51.550;5.418;2023-07-22T01:26:59;19.30;57.70
32296;DHT22;18781;51.550;5.418;2023-07-22T01:29:25;19.30;57.80
32296;DHT22;18781;51.550;5.418;2023-07-22T01:31:54;19.30;57.90
32296;DHT22;18781;51.550;5.418;2023-07-22T01:34:20;19.30;58.00
32296;DHT22;18781;51.550;5.418;2023-07-22T01:36:47;19.30;58.00
32296;DHT22;18781;51.550;5.418;2023-07-22T01:39:13;19.30;58.00
32296;DHT22;18781;51.550;5.418;2023-07-22T01:41:42;19.30;58.00
32296;DHT22;18781;51.550;5.418;2023-07-22T01:44:08;19.30;57.90
32296;DHT22;18781;51.550;5.418;2023-07-22T01:46:33;19.30;58.00
32296;DHT22;18781;51.550;5.418;2023-07-22T01:49:00;19.30;58.10
32296;DHT22;18781;51.550;5.418;2023-07-22T01:51:27;19.20;58.20
32296;DHT22;18781;51.550;5.418;2023-07-22T01:53:53;19.20;58.30
32296;DHT22;18781;51.550;5.418;2023-07-22T01:56:18;19.20;58.30
32296;DHT22;18781;51.550;5.418;2023-07-22T01:58:45;19.20;58.30
32296;DHT22;18781;51.550;5.418;2023-07-22T02:01:11;19.20;58.40
32296;DHT22;18781;51.550;5.418;2023-07-22T02:03:39;19.20;58.50
32296;DHT22;18781;51.550;5.418;2023-07-22T02:06:05;19.20;58.50
32296;DHT22;18781;51.550;5.418;2023-07-22T02:08:31;19.20;58.60
32296;DHT22;18781;51.550;5.418;2023-07-22T02:11:02;19.10;58.50
32296;DHT22;18781;51.550;5.418;2023-07-22T02:13:29;19.20;58.90
32296;DHT22;18781;51.550;5.418;2023-07-22T02:15:55;19.10;58.50
32296;DHT22;18781;51.550;5.418;2023-07-22T02:18:21;19.10;58.60
32296;DHT22;18781;51.550;5.418;2023-07-22T02:20:46;19.10;58.50
32296;DHT22;18781;51.550;5.418;2023-07-22T02:23:12;19.10;58.60
32296;DHT22;18781;51.550;5.418;2023-07-22T02:25:37;19.10;58.70
32296;DHT22;18781;51.550;5.418;2023-07-22T02:28:03;19.10;58.70
32296;DHT22;18781;51.550;5.418;2023-07-22T02:30:29;19.10;58.70
32296;DHT22;18781;51.550;5.418;2023-07-22T02:32:54;19.10;58.80
32296;DHT22;18781;51.550;5.418;2023-07-22T02:35:20;19.10;58.80
32296;DHT22;18781;51.550;5.418;2023-07-22T02:37:45;19.10;58.90
32296;DHT22;18781;51.550;5.418;2023-07-22T02:40:11;19.10;58.90
32296;DHT22;18781;51.550;5.418;2023-07-22T02:42:37;19.10;58.90
32296;DHT22;18781;51.550;5.418;2023-07-22T02:45:03;19.10;59.00
32296;DHT22;18781;51.550;5.418;2023-07-22T02:47:33;19.00;58.90
32296;DHT22;18781;51.550;5.418;2023-07-22T02:50:00;19.00;58.90
32296;DHT22;18781;51.550;5.418;2023-07-22T02:52:25;19.00;58.90
32296;DHT22;18781;51.550;5.418;2023-07-22T02:55:12;19.00;58.90
32296;DHT22;18781;51.550;5.418;2023-07-22T02:57:38;19.00;59.10
32296;DHT22;18781;51.550;5.418;2023-07-22T03:00:05;19.00;59.00
32296;DHT22;18781;51.550;5.418;2023-07-22T03:02:37;18.90;59.50
32296;DHT22;18781;51.550;5.418;2023-07-22T03:05:04;18.90;59.20
32296;DHT22;18781;51.550;5.418;2023-07-22T03:07:36;18.90;59.00
32296;DHT22;18781;51.550;5.418;2023-07-22T03:10:02;18.80;59.00
32296;DHT22;18781;51.550;5.418;2023-07-22T03:12:28;18.80;58.80
32296;DHT22;18781;51.550;5.418;2023-07-22T03:14:53;18.80;58.90
32296;DHT22;18781;51.550;5.418;2023-07-22T03:17:19;18.80;59.00
32296;DHT22;18781;51.550;5.418;2023-07-22T03:19:45;18.80;59.10
32296;DHT22;18781;51.550;5.418;2023-07-22T03:22:15;18.70;59.20
32296;DHT22;18781;51.550;5.418;2023-07-22T03:24:47;18.70;59.30
32296;DHT22;18781;51.550;5.418;2023-07-22T03:27:13;18.60;59.30
32296;DHT22;18781;51.550;5.418;2023-07-22T03:29:40;18.60;59.40
32296;DHT22;18781;51.550;5.418;2023-07-22T03:32:06;18.60;59.50
32296;DHT22;18781;51.550;5.418;2023-07-22T03:34:32;18.60;59.60
32296;DHT22;18781;51.550;5.418;2023-07-22T03:36:57;18.60;59.60
32296;DHT22;18781;51.550;5.418;2023-07-22T03:39:23;18.50;59.70
32296;DHT22;18781;51.550;5.418;2023-07-22T03:41:49;18.50;59.70
32296;DHT22;18781;51.550;5.418;2023-07-22T03:44:15;18.50;59.80
32296;DHT22;18781;51.550;5.418;2023-07-22T03:46:40;18.40;59.80
32296;DHT22;18781;51.550;5.418;2023-07-22T03:49:06;18.40;59.80
32296;DHT22;18781;51.550;5.418;2023-07-22T03:51:33;18.40;60.00
32296;DHT22;18781;51.550;5.418;2023-07-22T03:53:59;18.40;60.10
32296;DHT22;18781;51.550;5.418;2023-07-22T03:56:25;18.40;60.10
32296;DHT22;18781;51.550;5.418;2023-07-22T03:58:51;18.30;60.60
32296;DHT22;18781;51.550;5.418;2023-07-22T04:01:17;18.30;60.20
32296;DHT22;18781;51.550;5.418;2023-07-22T04:03:42;18.30;60.20
32296;DHT22;18781;51.550;5.418;2023-07-22T04:06:08;18.20;60.20
32296;DHT22;18781;51.550;5.418;2023-07-22T04:08:33;18.30;60.40
32296;DHT22;18781;51.550;5.418;2023-07-22T04:10:59;18.20;60.40
32296;DHT22;18781;51.550;5.418;2023-07-22T04:13:25;18.20;60.40
32296;DHT22;18781;51.550;5.418;2023-07-22T04:15:51;18.20;60.60
32296;DHT22;18781;51.550;5.418;2023-07-22T04:18:18;18.20;60.80
32296;DHT22;18781;51.550;5.418;2023-07-22T04:20:44;18.10;60.70
32296;DHT22;18781;51.550;5.418;2023-07-22T04:23:10;18.10;60.80
32296;DHT22;18781;51.550;5.418;2023-07-22T04:25:43;18.10;60.90
32296;DHT22;18781;51.550;5.418;2023-07-22T04:28:09;18.10;61.30
32296;DHT22;18781;51.550;5.418;2023-07-22T04:30:37;18.10;61.00
32296;DHT22;18781;51.550;5.418;2023-07-22T04:33:03;18.10;61.10
32296;DHT22;18781;51.550;5.418;2023-07-22T04:35:32;18.10;61.10
32296;DHT22;18781;51.550;5.418;2023-07-22T04:37:58;18.10;61.30
32296;DHT22;18781;51.550;5.418;2023-07-22T04:40:23;18.00;61.20
32296;DHT22;18781;51.550;5.418;2023-07-22T04:42:50;18.00;61.30
32296;DHT22;18781;51.550;5.418;2023-07-22T04:45:16;18.00;61.30
32296;DHT22;18781;51.550;5.418;2023-07-22T04:47:43;18.00;61.40
32296;DHT22;18781;51.550;5.418;2023-07-22T04:50:13;18.00;61.50
32296;DHT22;18781;51.550;5.418;2023-07-22T04:52:39;18.00;61.50
32296;DHT22;18781;51.550;5.418;2023-07-22T04:55:05;18.00;61.70
32296;DHT22;18781;51.550;5.418;2023-07-22T04:57:35;18.00;61.80
32296;DHT22;18781;51.550;5.418;2023-07-22T05:00:04;18.00;62.10
32296;DHT22;18781;51.550;5.418;2023-07-22T05:02:30;18.00;61.90
32296;DHT22;18781;51.550;5.418;2023-07-22T05:04:56;18.10;61.80
32296;DHT22;18781;51.550;5.418;2023-07-22T05:07:22;18.10;62.00
32296;DHT22;18781;51.550;5.418;2023-07-22T05:09:49;18.10;62.20
32296;DHT22;18781;51.550;5.418;2023-07-22T05:12:15;18.10;62.20
32296;DHT22;18781;51.550;5.418;2023-07-22T05:14:40;18.10;62.20
32296;DHT22;18781;51.550;5.418;2023-07-22T05:17:06;18.10;62.20
32296;DHT22;18781;51.550;5.418;2023-07-22T05:19:31;18.10;62.20
32296;DHT22;18781;51.550;5.418;2023-07-22T05:21:57;18.10;62.30
32296;DHT22;18781;51.550;5.418;2023-07-22T05:24:22;18.10;62.40
32296;DHT22;18781;51.550;5.418;2023-07-22T05:26:48;18.20;62.50
32296;DHT22;18781;51.550;5.418;2023-07-22T05:29:14;18.20;62.50
32296;DHT22;18781;51.550;5.418;2023-07-22T05:31:39;18.20;62.50
32296;DHT22;18781;51.550;5.418;2023-07-22T05:34:05;18.20;62.40
32296;DHT22;18781;51.550;5.418;2023-07-22T05:36:30;18.20;62.50
32296;DHT22;18781;51.550;5.418;2023-07-22T05:38:57;18.20;62.50
32296;DHT22;18781;51.550;5.418;2023-07-22T05:41:23;18.30;62.60
32296;DHT22;18781;51.550;5.418;2023-07-22T05:43:48;18.30;62.60
32296;DHT22;18781;51.550;5.418;2023-07-22T05:46:14;18.30;62.80
32296;DHT22;18781;51.550;5.418;2023-07-22T05:48:39;18.30;62.80
32296;DHT22;18781;51.550;5.418;2023-07-22T05:51:05;18.40;62.90
32296;DHT22;18781;51.550;5.418;2023-07-22T05:53:32;18.40;62.90
32296;DHT22;18781;51.550;5.418;2023-07-22T05:55:58;18.50;62.90
32296;DHT22;18781;51.550;5.418;2023-07-22T05:58:23;18.50;62.80
32296;DHT22;18781;51.550;5.418;2023-07-22T06:00:49;18.50;62.90
32296;DHT22;18781;51.550;5.418;2023-07-22T06:03:17;18.50;63.00
32296;DHT22;18781;51.550;5.418;2023-07-22T06:05:42;18.60;63.00
32296;DHT22;18781;51.550;5.418;2023-07-22T06:08:08;18.60;63.10
32296;DHT22;18781;51.550;5.418;2023-07-22T06:10:33;18.70;63.20
32296;DHT22;18781;51.550;5.418;2023-07-22T06:12:59;18.80;63.30
32296;DHT22;18781;51.550;5.418;2023-07-22T06:15:25;18.80;63.30
32296;DHT22;18781;51.550;5.418;2023-07-22T06:17:50;18.90;63.40
32296;DHT22;18781;51.550;5.418;2023-07-22T06:20:16;18.90;63.40
32296;DHT22;18781;51.550;5.418;2023-07-22T06:22:41;19.00;63.30
32296;DHT22;18781;51.550;5.418;2023-07-22T06:25:08;19.00;63.30
32296;DHT22;18781;51.550;5.418;2023-07-22T06:27:34;19.10;63.30
32296;DHT22;18781;51.550;5.418;2023-07-22T06:30:00;19.20;63.20
32296;DHT22;18781;51.550;5.418;2023-07-22T06:32:26;19.20;63.20
32296;DHT22;18781;51.550;5.418;2023-07-22T06:34:55;19.30;63.30
32296;DHT22;18781;51.550;5.418;2023-07-22T06:37:21;19.30;63.30
32296;DHT22;18781;51.550;5.418;2023-07-22T06:39:47;19.30;63.30
32296;DHT22;18781;51.550;5.418;2023-07-22T06:42:12;19.40;63.30
32296;DHT22;18781;51.550;5.418;2023-07-22T06:44:38;19.40;63.20
32296;DHT22;18781;51.550;5.418;2023-07-22T06:47:04;19.40;63.20
32296;DHT22;18781;51.550;5.418;2023-07-22T06:49:29;19.50;63.30
32296;DHT22;18781;51.550;5.418;2023-07-22T06:51:55;19.60;63.40
32296;DHT22;18781;51.550;5.418;2023-07-22T06:54:20;19.60;63.40
32296;DHT22;18781;51.550;5.418;2023-07-22T06:56:46;19.60;63.40
32296;DHT22;18781;51.550;5.418;2023-07-22T06:59:11;19.70;63.60
32296;DHT22;18781;51.550;5.418;2023-07-22T07:01:37;19.80;63.60
32296;DHT22;18781;51.550;5.418;2023-07-22T07:04:03;19.80;64.10
32296;DHT22;18781;51.550;5.418;2023-07-22T07:06:29;19.90;63.50
32296;DHT22;18781;51.550;5.418;2023-07-22T07:08:55;20.00;63.80
32296;DHT22;18781;51.550;5.418;2023-07-22T07:11:20;20.10;63.70
32296;DHT22;18781;51.550;5.418;2023-07-22T07:13:46;20.10;64.00
32296;DHT22;18781;51.550;5.418;2023-07-22T07:16:26;20.20;63.40
32296;DHT22;18781;51.550;5.418;2023-07-22T07:18:53;20.20;63.60
32296;DHT22;18781;51.550;5.418;2023-07-22T07:21:19;20.30;63.30
32296;DHT22;18781;51.550;5.418;2023-07-22T07:23:45;20.40;63.30
32296;DHT22;18781;51.550;5.418;2023-07-22T07:26:11;20.40;63.20
32296;DHT22;18781;51.550;5.418;2023-07-22T07:28:37;20.50;63.20
32296;DHT22;18781;51.550;5.418;2023-07-22T07:31:02;20.50;62.90
32296;DHT22;18781;51.550;5.418;2023-07-22T07:33:28;20.60;62.90
32296;DHT22;18781;51.550;5.418;2023-07-22T07:35:54;20.60;62.90
32296;DHT22;18781;51.550;5.418;2023-07-22T07:38:20;20.60;62.70
32296;DHT22;18781;51.550;5.418;2023-07-22T07:40:45;20.70;62.80
32296;DHT22;18781;51.550;5.418;2023-07-22T07:43:11;20.70;63.00
32296;DHT22;18781;51.550;5.418;2023-07-22T07:45:39;20.70;63.00
32296;DHT22;18781;51.550;5.418;2023-07-22T07:48:05;20.80;63.20
32296;DHT22;18781;51.550;5.418;2023-07-22T07:50:32;20.90;62.90
32296;DHT22;18781;51.550;5.418;2023-07-22T07:52:58;20.90;62.80
32296;DHT22;18781;51.550;5.418;2023-07-22T07:55:25;21.00;63.00
32296;DHT22;18781;51.550;5.418;2023-07-22T07:57:50;21.00;62.90
32296;DHT22;18781;51.550;5.418;2023-07-22T08:00:16;21.10;63.00
32296;DHT22;18781;51.550;5.418;2023-07-22T08:02:42;21.20;62.90
32296;DHT22;18781;51.550;5.418;2023-07-22T08:05:08;21.20;62.60
32296;DHT22;18781;51.550;5.418;2023-07-22T08:07:33;21.30;62.40
32296;DHT22;18781;51.550;5.418;2023-07-22T08:10:00;21.40;62.20
32296;DHT22;18781;51.550;5.418;2023-07-22T08:12:26;21.40;62.00
32296;DHT22;18781;51.550;5.418;2023-07-22T08:14:53;21.50;62.00
32296;DHT22;18781;51.550;5.418;2023-07-22T08:17:18;21.50;61.80
32296;DHT22;18781;51.550;5.418;2023-07-22T08:19:44;21.60;61.90
32296;DHT22;18781;51.550;5.418;2023-07-22T08:22:10;21.60;61.80
32296;DHT22;18781;51.550;5.418;2023-07-22T08:24:36;21.60;61.60
32296;DHT22;18781;51.550;5.418;2023-07-22T08:27:01;21.70;61.50
32296;DHT22;18781;51.550;5.418;2023-07-22T08:29:27;21.80;61.40
32296;DHT22;18781;51.550;5.418;2023-07-22T08:31:52;21.80;61.00
32296;DHT22;18781;51.550;5.418;2023-07-22T08:34:18;21.80;60.90
32296;DHT22;18781;51.550;5.418;2023-07-22T08:36:43;21.80;60.80
32296;DHT22;18781;51.550;5.418;2023-07-22T08:39:09;22.00;61.10
32296;DHT22;18781;51.550;5.418;2023-07-22T08:41:36;22.00;61.10
32296;DHT22;18781;51.550;5.418;2023-07-22T08:44:04;22.10;60.70
32296;DHT22;18781;51.550;5.418;2023-07-22T08:46:33;22.20;60.90
32296;DHT22;18781;51.550;5.418;2023-07-22T08:49:00;22.20;61.00
32296;DHT22;18781;51.550;5.418;2023-07-22T08:51:26;22.30;60.50
32296;DHT22;18781;51.550;5.418;2023-07-22T08:53:58;22.40;60.50
32296;DHT22;18781;51.550;5.418;2023-07-22T08:56:25;22.50;60.80
32296;DHT22;18781;51.550;5.418;2023-07-22T08:58:55;22.60;60.40
32296;DHT22;18781;51.550;5.418;2023-07-22T09:01:21;22.70;59.50
32296;DHT22;18781;51.550;5.418;2023-07-22T09:03:48;22.90;59.40
32296;DHT22;18781;51.550;5.418;2023-07-22T09:06:14;22.90;58.70
32296;DHT22;18781;51.550;5.418;2023-07-22T09:08:39;23.00;58.70
32296;DHT22;18781;51.550;5.418;2023-07-22T09:11:06;23.10;58.30
32296;DHT22;18781;51.550;5.418;2023-07-22T09:13:32;23.20;57.90
32296;DHT22;18781;51.550;5.418;2023-07-22T09:16:00;23.20;57.70
32296;DHT22;18781;51.550;5.418;2023-07-22T09:18:26;23.30;58.00
32296;DHT22;18781;51.550;5.418;2023-07-22T09:20:52;23.40;57.60
32296;DHT22;18781;51.550;5.418;2023-07-22T09:23:17;23.40;57.40
32296;DHT22;18781;51.550;5.418;2023-07-22T09:25:43;23.50;57.30
32296;DHT22;18781;51.550;5.418;2023-07-22T09:28:09;23.60;56.70
32296;DHT22;18781;51.550;5.418;2023-07-22T09:30:37;23.60;56.40
32296;DHT22;18781;51.550;5.418;2023-07-22T09:33:05;23.60;56.50
32296;DHT22;18781;51.550;5.418;2023-07-22T09:35:51;23.70;55.70
32296;DHT22;18781;51.550;5.418;2023-07-22T09:38:24;23.70;55.40
32296;DHT22;18781;51.550;5.418;2023-07-22T09:40:52;23.80;55.20
32296;DHT22;18781;51.550;5.418;2023-07-22T09:43:17;23.90;55.00
32296;DHT22;18781;51.550;5.418;2023-07-22T09:45:47;23.80;55.00
32296;DHT22;18781;51.550;5.418;2023-07-22T09:48:13;23.90;54.90
32296;DHT22;18781;51.550;5.418;2023-07-22T09:50:39;23.90;55.00
32296;DHT22;18781;51.550;5.418;2023-07-22T09:53:06;24.00;55.00
32296;DHT22;18781;51.550;5.418;2023-07-22T09:55:33;24.00;54.70
32296;DHT22;18781;51.550;5.418;2023-07-22T09:58:00;24.10;54.50
32296;DHT22;18781;51.550;5.418;2023-07-22T10:00:48;24.10;54.30
32296;DHT22;18781;51.550;5.418;2023-07-22T10:03:16;24.10;54.60
32296;DHT22;18781;51.550;5.418;2023-07-22T10:05:42;24.10;54.40
32296;DHT22;18781;51.550;5.418;2023-07-22T10:08:10;24.10;53.90
32296;DHT22;18781;51.550;5.418;2023-07-22T10:10:38;24.10;54.20
32296;DHT22;18781;51.550;5.418;2023-07-22T10:13:04;24.10;53.90
32296;DHT22;18781;51.550;5.418;2023-07-22T10:15:32;24.20;54.00
32296;DHT22;18781;51.550;5.418;2023-07-22T10:18:02;24.20;54.20
32296;DHT22;18781;51.550;5.418;2023-07-22T10:20:28;24.20;54.00
32296;DHT22;18781;51.550;5.418;2023-07-22T10:22:55;24.20;54.10
32296;DHT22;18781;51.550;5.418;2023-07-22T10:25:22;24.20;54.20
32296;DHT22;18781;51.550;5.418;2023-07-22T10:27:49;24.30;53.80
32296;DHT22;18781;51.550;5.418;2023-07-22T10:30:17;24.40;53.30
32296;DHT22;18781;51.550;5.418;2023-07-22T10:32:46;24.40;54.10
32296;DHT22;18781;51.550;5.418;2023-07-22T10:35:24;24.40;53.50
32296;DHT22;18781;51.550;5.418;2023-07-22T10:38:15;24.50;53.40
32296;DHT22;18781;51.550;5.418;2023-07-22T10:40:51;24.60;52.90
32296;DHT22;18781;51.550;5.418;2023-07-22T10:43:23;24.60;51.90
32296;DHT22;18781;51.550;5.418;2023-07-22T10:45:50;24.60;51.60
32296;DHT22;18781;51.550;5.418;2023-07-22T10:48:17;24.70;51.40
32296;DHT22;18781;51.550;5.418;2023-07-22T10:50:44;24.70;52.30
32296;DHT22;18781;51.550;5.418;2023-07-22T11:12:00;24.90;50.20
32296;DHT22;18781;51.550;5.418;2023-07-22T11:14:30;25.00;49.90
32296;DHT22;18781;51.550;5.418;2023-07-22T11:16:58;25.00;50.00
32296;DHT22;18781;51.550;5.418;2023-07-22T11:19:24;25.00;49.90
32296;DHT22;18781;51.550;5.418;2023-07-22T11:21:53;25.10;49.70
32296;DHT22;18781;51.550;5.418;2023-07-22T11:24:20;25.10;49.40
32296;DHT22;18781;51.550;5.418;2023-07-22T11:26:46;25.20;48.60
32296;DHT22;18781;51.550;5.418;2023-07-22T11:29:13;25.20;48.30
32296;DHT22;18781;51.550;5.418;2023-07-22T11:31:44;25.20;48.70
32296;DHT22;18781;51.550;5.418;2023-07-22T11:34:11;25.20;48.70
32296;DHT22;18781;51.550;5.418;2023-07-22T11:36:37;25.30;47.90
32296;DHT22;18781;51.550;5.418;2023-07-22T11:39:07;25.30;47.90
32296;DHT22;18781;51.550;5.418;2023-07-22T11:41:33;25.30;47.10
32296;DHT22;18781;51.550;5.418;2023-07-22T11:44:00;25.30;47.70
32296;DHT22;18781;51.550;5.418;2023-07-22T11:46:27;25.30;48.00
32296;DHT22;18781;51.550;5.418;2023-07-22T11:48:54;25.40;48.10
32296;DHT22;18781;51.550;5.418;2023-07-22T11:51:24;25.40;48.30
32296;DHT22;18781;51.550;5.418;2023-07-22T11:53:51;25.50;47.60
32296;DHT22;18781;51.550;5.418;2023-07-22T11:56:27;25.50;46.90
32296;DHT22;18781;51.550;5.418;2023-07-22T11:58:54;25.60;47.10
32296;DHT22;18781;51.550;5.418;2023-07-22T12:01:20;25.60;46.90
32296;DHT22;18781;51.550;5.418;2023-07-22T12:03:46;25.70;46.60
32296;DHT22;18781;51.550;5.418;2023-07-22T12:06:13;25.80;46.80
32296;DHT22;18781;51.550;5.418;2023-07-22T12:08:46;25.80;47.10
32296;DHT22;18781;51.550;5.418;2023-07-22T12:11:19;25.80;46.20
32296;DHT22;18781;51.550;5.418;2023-07-22T12:13:45;25.90;46.80
32296;DHT22;18781;51.550;5.418;2023-07-22T12:16:21;25.90;46.60
32296;DHT22;18781;51.550;5.418;2023-07-22T12:18:48;26.00;46.50
32296;DHT22;18781;51.550;5.418;2023-07-22T12:21:14;26.10;45.60
32296;DHT22;18781;51.550;5.418;2023-07-22T12:23:41;26.10;45.80
32296;DHT22;18781;51.550;5.418;2023-07-22T12:26:07;26.10;45.50
32296;DHT22;18781;51.550;5.418;2023-07-22T12:28:33;26.10;45.50
32296;DHT22;18781;51.550;5.418;2023-07-22T12:30:59;26.20;45.20
32296;DHT22;18781;51.550;5.418;2023-07-22T12:33:26;26.20;44.80
32296;DHT22;18781;51.550;5.418;2023-07-22T12:35:54;26.20;45.10
32296;DHT22;18781;51.550;5.418;2023-07-22T12:38:20;26.30;44.50
32296;DHT22;18781;51.550;5.418;2023-07-22T12:40:45;26.30;44.50
32296;DHT22;18781;51.550;5.418;2023-07-22T12:43:11;26.30;45.40
32296;DHT22;18781;51.550;5.418;2023-07-22T12:45:36;26.30;44.70
32296;DHT22;18781;51.550;5.418;2023-07-22T12:48:02;26.40;45.00
32296;DHT22;18781;51.550;5.418;2023-07-22T12:50:29;26.40;44.40
32296;DHT22;18781;51.550;5.418;2023-07-22T12:52:55;26.40;44.20
32296;DHT22;18781;51.550;5.418;2023-07-22T12:55:20;26.50;44.30
32296;DHT22;18781;51.550;5.418;2023-07-22T12:57:46;26.50;44.10
32296;DHT22;18781;51.550;5.418;2023-07-22T13:00:12;26.60;43.90
32296;DHT22;18781;51.550;5.418;2023-07-22T13:02:38;26.60;44.10
32296;DHT22;18781;51.550;5.418;2023-07-22T13:05:04;26.60;43.10
32296;DHT22;18781;51.550;5.418;2023-07-22T13:07:31;26.60;43.20
32296;DHT22;18781;51.550;5.418;2023-07-22T13:09:57;26.60;42.60
32296;DHT22;18781;51.550;5.418;2023-07-22T13:12:24;26.60;42.80
32296;DHT22;18781;51.550;5.418;2023-07-22T13:14:50;26.50;42.60
32296;DHT22;18781;51.550;5.418;2023-07-22T13:17:15;26.50;42.50
32296;DHT22;18781;51.550;5.418;2023-07-22T13:19:41;26.60;42.60
32296;DHT22;18781;51.550;5.418;2023-07-22T13:22:06;26.50;42.60
32296;DHT22;18781;51.550;5.418;2023-07-22T13:24:32;26.50;42.70
32296;DHT22;18781;51.550;5.418;2023-07-22T13:26:58;26.60;42.30
32296;DHT22;18781;51.550;5.418;2023-07-22T13:29:23;26.60;42.40
32296;DHT22;18781;51.550;5.418;2023-07-22T13:31:49;26.60;41.80
32296;DHT22;18781;51.550;5.418;2023-07-22T13:34:14;26.60;42.50
32296;DHT22;18781;51.550;5.418;2023-07-22T13:36:40;26.70;42.30
32296;DHT22;18781;51.550;5.418;2023-07-22T13:39:06;26.70;42.20
32296;DHT22;18781;51.550;5.418;2023-07-22T13:41:31;26.70;41.80
32296;DHT22;18781;51.550;5.418;2023-07-22T13:43:57;26.70;41.50
32296;DHT22;18781;51.550;5.418;2023-07-22T13:46:22;26.70;41.70
32296;DHT22;18781;51.550;5.418;2023-07-22T13:48:48;26.70;41.70
32296;DHT22;18781;51.550;5.418;2023-07-22T13:51:14;26.70;41.70
32296;DHT22;18781;51.550;5.418;2023-07-22T13:53:39;26.70;41.30
32296;DHT22;18781;51.550;5.418;2023-07-22T13:56:05;26.70;41.60
32296;DHT22;18781;51.550;5.418;2023-07-22T13:58:30;26.70;41.60
32296;DHT22;18781;51.550;5.418;2023-07-22T14:00:56;26.70;41.40
32296;DHT22;18781;51.550;5.418;2023-07-22T14:03:21;26.70;41.50
32296;DHT22;18781;51.550;5.418;2023-07-22T14:05:47;26.70;41.50
32296;DHT22;18781;51.550;5.418;2023-07-22T14:08:13;26.80;41.40
32296;DHT22;18781;51.550;5.418;2023-07-22T14:10:38;26.80;41.20
32296;DHT22;18781;51.550;5.418;2023-07-22T14:13:04;26.90;40.90
32296;DHT22;18781;51.550;5.418;2023-07-22T14:15:30;26.90;40.60
32296;DHT22;18781;51.550;5.418;2023-07-22T14:17:55;26.90;40.40
32296;DHT22;18781;51.550;5.418;2023-07-22T14:20:21;26.90;40.50
32296;DHT22;18781;51.550;5.418;2023-07-22T14:22:47;27.00;40.00
32296;DHT22;18781;51.550;5.418;2023-07-22T14:25:15;26.90;39.60
32296;DHT22;18781;51.550;5.418;2023-07-22T14:27:41;26.90;39.90
32296;DHT22;18781;51.550;5.418;2023-07-22T14:30:07;26.90;39.80
32296;DHT22;18781;51.550;5.418;2023-07-22T14:32:33;26.80;40.10
32296;DHT22;18781;51.550;5.418;2023-07-22T14:34:59;26.80;39.80
32296;DHT22;18781;51.550;5.418;2023-07-22T14:37:24;26.70;39.70
32296;DHT22;18781;51.550;5.418;2023-07-22T14:39:50;26.70;39.70
32296;DHT22;18781;51.550;5.418;2023-07-22T14:42:15;26.60;39.50
32296;DHT22;18781;51.550;5.418;2023-07-22T14:44:41;26.50;39.70
32296;DHT22;18781;51.550;5.418;2023-07-22T14:47:06;26.40;39.30
32296;DHT22;18781;51.550;5.418;2023-07-22T14:49:32;26.40;39.50
32296;DHT22;18781;51.550;5.418;2023-07-22T14:51:57;26.30;39.90
32296;DHT22;18781;51.550;5.418;2023-07-22T14:54:23;26.30;40.00
32296;DHT22;18781;51.550;5.418;2023-07-22T14:56:49;26.20;39.70
32296;DHT22;18781;51.550;5.418;2023-07-22T14:59:15;26.10;39.90
32296;DHT22;18781;51.550;5.418;2023-07-22T15:01:42;26.10;40.40
32296;DHT22;18781;51.550;5.418;2023-07-22T15:04:08;26.00;40.90
32296;DHT22;18781;51.550;5.418;2023-07-22T15:06:34;25.90;41.30
32296;DHT22;18781;51.550;5.418;2023-07-22T15:09:01;25.90;41.60
32296;DHT22;18781;51.550;5.418;2023-07-22T15:11:27;25.80;42.00
32296;DHT22;18781;51.550;5.418;2023-07-22T15:13:53;25.80;42.20
32296;DHT22;18781;51.550;5.418;2023-07-22T15:16:18;25.70;42.50
32296;DHT22;18781;51.550;5.418;2023-07-22T15:18:44;25.70;42.90
32296;DHT22;18781;51.550;5.418;2023-07-22T15:21:09;25.70;43.30
32296;DHT22;18781;51.550;5.418;2023-07-22T15:23:35;25.60;43.50
32296;DHT22;18781;51.550;5.418;2023-07-22T15:26:00;25.70;43.70
32296;DHT22;18781;51.550;5.418;2023-07-22T15:28:26;25.60;43.90
32296;DHT22;18781;51.550;5.418;2023-07-22T15:30:54;25.60;44.70
32296;DHT22;18781;51.550;5.418;2023-07-22T15:33:20;25.60;44.40
32296;DHT22;18781;51.550;5.418;2023-07-22T15:35:47;25.60;44.40
32296;DHT22;18781;51.550;5.418;2023-07-22T15:38:13;25.60;44.30
32296;DHT22;18781;51.550;5.418;2023-07-22T15:40:38;25.60;44.50
32296;DHT22;18781;51.550;5.418;2023-07-22T15:43:04;25.50;44.50
32296;DHT22;18781;51.550;5.418;2023-07-22T15:45:30;25.50;44.60